createdAt,value
2023-04-21T00:00:15.797Z,100.00
2023-04-21T00:02:43.394Z,100.00
2023-04-21T00:05:12.493Z,100.00
2023-04-21T00:07:40.291Z,100.00
2023-04-21T00:10:10.517Z,100.00
2023-04-21T00:12:38.749Z,100.00
2023-04-21T00:15:07.541Z,100.00
2023-04-21T00:17:35.126Z,100.00
2023-04-21T00:20:02.684Z,100.00
2023-04-21T00:22:30.142Z,100.00
2023-04-21T00:24:58.259Z,100.00
2023-04-21T00:27:27.082Z,100.00
2023-04-21T00:29:54.564Z,100.00
2023-04-21T00:32:22.121Z,100.00
2023-04-21T00:34:49.609Z,100.00
2023-04-21T00:37:17.102Z,100.00
2023-04-21T00:39:44.622Z,100.00
2023-04-21T00:42:12.106Z,100.00
2023-04-21T00:44:40.934Z,100.00
2023-04-21T00:47:08.510Z,100.00
2023-04-21T00:49:36.300Z,100.00
2023-04-21T00:52:06.052Z,100.00
2023-04-21T00:54:33.708Z,100.00
2023-04-21T00:57:02.912Z,100.00
2023-04-21T00:59:30.741Z,100.00
2023-04-21T01:01:59.761Z,100.00
2023-04-21T01:04:27.343Z,100.00
2023-04-21T01:06:54.890Z,100.00
2023-04-21T01:09:22.845Z,100.00
2023-04-21T01:12:04.160Z,100.00
2023-04-21T01:14:32.138Z,100.00
2023-04-21T01:17:01.147Z,100.00
2023-04-21T01:19:33.187Z,100.00
2023-04-21T01:22:02.174Z,100.00
2023-04-21T01:24:37.062Z,100.00
2023-04-21T01:27:04.703Z,100.00
2023-04-21T01:29:34.655Z,100.00
2023-04-21T01:32:05.903Z,100.00
2023-04-21T01:34:33.480Z,100.00
2023-04-21T01:37:02.480Z,100.00
2023-04-21T01:39:30.438Z,100.00
2023-04-21T01:41:58.746Z,100.00
2023-04-21T01:44:26.990Z,100.00
2023-04-21T01:46:54.526Z,100.00
2023-04-21T01:49:22.000Z,100.00
2023-04-21T01:51:49.511Z,100.00
2023-04-21T01:54:18.344Z,100.00
2023-04-21T01:56:45.956Z,100.00
2023-04-21T01:59:13.528Z,100.00
2023-04-21T02:01:41.089Z,100.00
2023-04-21T02:04:08.919Z,100.00
2023-04-21T02:06:36.531Z,100.00
2023-04-21T02:09:04.066Z,100.00
2023-04-21T02:11:32.932Z,100.00
2023-04-21T02:14:00.460Z,100.00
2023-04-21T02:16:28.626Z,100.00
2023-04-21T02:18:57.739Z,100.00
2023-04-21T02:21:26.388Z,100.00
2023-04-21T02:23:53.916Z,100.00
2023-04-21T02:26:21.692Z,100.00
2023-04-21T02:28:51.212Z,100.00
2023-04-21T02:31:19.041Z,100.00
2023-04-21T02:33:46.838Z,100.00
2023-04-21T02:36:14.427Z,100.00
2023-04-21T02:38:41.871Z,100.00
2023-04-21T02:41:09.351Z,100.00
2023-04-21T02:43:36.911Z,100.00
2023-04-21T02:46:08.262Z,100.00
2023-04-21T02:48:36.200Z,100.00
2023-04-21T02:51:04.384Z,100.00
2023-04-21T02:53:32.017Z,100.00
2023-04-21T02:56:02.303Z,100.00
2023-04-21T02:58:29.869Z,100.00
2023-04-21T03:00:57.376Z,100.00
2023-04-21T03:03:26.319Z,100.00
2023-04-21T03:05:57.664Z,100.00
2023-04-21T03:08:25.300Z,100.00
2023-04-21T03:10:52.802Z,100.00
2023-04-21T03:13:20.579Z,100.00
2023-04-21T03:15:48.108Z,100.00
2023-04-21T03:18:15.620Z,100.00
2023-04-21T03:20:44.808Z,100.00
2023-04-21T03:23:12.299Z,100.00
2023-04-21T03:25:40.179Z,100.00
2023-04-21T03:28:07.643Z,100.00
2023-04-21T03:30:35.364Z,100.00
2023-04-21T03:33:03.415Z,100.00
2023-04-21T03:35:31.319Z,100.00
2023-04-21T03:38:01.355Z,100.00
2023-04-21T03:40:31.017Z,100.00
2023-04-21T03:42:58.509Z,100.00
2023-04-21T03:45:26.142Z,100.00
2023-04-21T03:47:55.110Z,100.00
2023-04-21T03:50:22.687Z,100.00
2023-04-21T03:52:50.186Z,100.00
2023-04-21T03:55:19.322Z,100.00
2023-04-21T03:57:46.845Z,100.00
2023-04-21T04:00:14.979Z,100.00
2023-04-21T04:02:42.671Z,100.00
2023-04-21T04:05:10.381Z,100.00
2023-04-21T04:07:37.885Z,100.00
2023-04-21T04:10:06.016Z,100.00
2023-04-21T04:12:34.836Z,100.00
2023-04-21T04:15:02.714Z,100.00
2023-04-21T04:17:30.262Z,100.00
2023-04-21T04:19:57.748Z,100.00
2023-04-21T04:22:25.191Z,100.00
2023-04-21T04:24:53.176Z,100.00
2023-04-21T04:27:20.960Z,100.00
2023-04-21T04:29:49.821Z,100.00
2023-04-21T04:32:17.560Z,100.00
2023-04-21T04:34:45.361Z,100.00
2023-04-21T04:37:13.052Z,100.00
2023-04-21T04:39:40.743Z,100.00
2023-04-21T04:42:10.053Z,100.00
2023-04-21T04:44:37.588Z,100.00
2023-04-21T04:47:07.358Z,100.00
2023-04-21T04:49:34.874Z,100.00
2023-04-21T04:52:02.389Z,100.00
2023-04-21T04:54:29.964Z,100.00
2023-04-21T04:56:58.660Z,100.00
2023-04-21T04:59:26.711Z,100.00
2023-04-21T05:01:55.422Z,100.00
2023-04-21T05:04:24.602Z,100.00
2023-04-21T05:06:52.922Z,100.00
2023-04-21T05:09:20.836Z,100.00
2023-04-21T05:11:48.396Z,100.00
2023-04-21T05:14:15.881Z,100.00
2023-04-21T05:16:44.471Z,100.00
2023-04-21T05:19:12.049Z,100.00
2023-04-21T05:21:40.848Z,100.00
2023-04-21T05:24:08.455Z,100.00
2023-04-21T05:26:35.880Z,100.00
2023-04-21T05:29:03.350Z,100.00
2023-04-21T05:31:30.814Z,100.00
2023-04-21T05:33:58.285Z,100.00
2023-04-21T05:36:25.822Z,100.00
2023-04-21T05:38:55.025Z,100.00
2023-04-21T05:41:22.643Z,100.00
2023-04-21T05:43:50.229Z,99.68
2023-04-21T05:46:17.771Z,90.62
2023-04-21T05:48:45.255Z,81.13
2023-04-21T05:51:15.336Z,82.31
2023-04-21T05:53:44.073Z,79.07
2023-04-21T05:56:13.589Z,78.98
2023-04-21T05:58:41.688Z,77.01
2023-04-21T06:01:09.485Z,74.71
2023-04-21T06:03:37.246Z,73.42
2023-04-21T06:06:06.184Z,72.89
2023-04-21T06:08:33.840Z,69.27
2023-04-21T06:11:01.444Z,70.09
2023-04-21T06:13:30.263Z,66.91
2023-04-21T06:15:57.819Z,69.05
2023-04-21T06:18:27.892Z,66.48
2023-04-21T06:20:56.629Z,66.84
2023-04-21T06:23:24.276Z,68.59
2023-04-21T06:26:01.280Z,69.19
2023-04-21T06:28:30.058Z,65.52
2023-04-21T06:30:57.488Z,67.49
2023-04-21T06:33:24.926Z,68.68
2023-04-21T06:35:52.368Z,66.22
2023-04-21T06:38:20.013Z,71.45
2023-04-21T06:40:47.530Z,68.05
2023-04-21T06:43:15.259Z,65.89
2023-04-21T06:45:44.042Z,64.32
2023-04-21T06:48:11.557Z,62.15
2023-04-21T06:50:39.062Z,66.02
2023-04-21T06:53:06.527Z,62.10
2023-04-21T06:55:34.044Z,62.36
2023-04-21T06:58:01.564Z,62.04
2023-04-21T07:00:29.174Z,62.67
2023-04-21T07:02:58.126Z,63.39
2023-04-21T07:05:25.892Z,63.18
2023-04-21T07:07:54.672Z,61.17
2023-04-21T07:10:22.371Z,59.47
2023-04-21T07:12:49.836Z,55.98
2023-04-21T07:15:17.385Z,54.60
2023-04-21T07:17:44.897Z,51.81
2023-04-21T07:20:14.400Z,50.53
2023-04-21T07:22:42.194Z,46.91
2023-04-21T07:25:10.894Z,46.10
2023-04-21T07:27:38.636Z,44.72
2023-04-21T07:30:07.383Z,48.32
2023-04-21T07:32:35.115Z,46.98
2023-04-21T07:35:03.280Z,45.16
2023-04-21T07:37:32.151Z,43.71
2023-04-21T07:39:59.707Z,41.74
2023-04-21T07:42:27.607Z,40.55
2023-04-21T07:44:56.082Z,38.95
2023-04-21T07:47:23.735Z,38.65
2023-04-21T07:49:51.330Z,38.39
2023-04-21T07:52:19.355Z,38.93
2023-04-21T07:54:48.145Z,38.24
2023-04-21T07:57:15.948Z,38.61
2023-04-21T07:59:43.476Z,40.72
2023-04-21T08:02:11.170Z,39.96
2023-04-21T08:04:38.733Z,39.50
2023-04-21T08:07:06.398Z,40.13
2023-04-21T08:09:33.875Z,39.56
2023-04-21T08:12:03.095Z,40.96
2023-04-21T08:14:30.759Z,41.50
2023-04-21T08:16:58.337Z,42.78
2023-04-21T08:19:26.250Z,43.52
2023-04-21T08:21:53.701Z,43.01
2023-04-21T08:24:21.303Z,43.76
2023-04-21T08:26:48.894Z,44.82
2023-04-21T08:29:17.724Z,42.34
2023-04-21T08:31:45.249Z,43.60
2023-04-21T08:34:12.741Z,43.56
2023-04-21T08:36:41.394Z,43.59
2023-04-21T08:39:08.911Z,44.71
2023-04-21T08:41:36.555Z,43.73
2023-04-21T08:44:03.995Z,42.87
2023-04-21T08:46:34.380Z,42.24
2023-04-21T08:49:02.152Z,40.48
2023-04-21T08:51:31.165Z,41.81
2023-04-21T08:53:59.061Z,42.70
2023-04-21T08:56:27.011Z,43.47
2023-04-21T08:58:54.744Z,43.22
2023-04-21T09:01:22.287Z,44.52
2023-04-21T09:03:51.443Z,46.25
2023-04-21T09:06:19.173Z,45.29
2023-04-21T09:08:55.774Z,45.27
2023-04-21T09:11:23.690Z,44.54
2023-04-21T09:13:51.137Z,43.58
2023-04-21T09:16:21.006Z,41.39
2023-04-21T09:18:48.807Z,41.53
2023-04-21T09:21:18.933Z,41.18
2023-04-21T09:23:48.126Z,41.19
2023-04-21T09:26:16.855Z,42.08
2023-04-21T09:28:45.081Z,42.19
2023-04-21T09:31:17.532Z,42.80
2023-04-21T09:33:57.070Z,42.26
2023-04-21T09:36:29.830Z,43.06
2023-04-21T09:41:29.462Z,42.35
2023-04-21T09:44:01.236Z,43.08
2023-04-21T09:46:31.156Z,44.42
2023-04-21T09:49:01.433Z,41.96
2023-04-21T09:51:49.015Z,41.85
2023-04-21T09:56:54.522Z,42.92
2023-04-21T09:59:27.521Z,43.52
2023-04-21T10:01:57.026Z,44.27
2023-04-21T10:04:26.742Z,44.42
2023-04-21T10:06:56.860Z,44.50
2023-04-21T10:09:28.432Z,44.27
2023-04-21T10:11:56.656Z,43.72
2023-04-21T10:14:25.959Z,43.10
2023-04-21T10:16:57.596Z,42.62
2023-04-21T10:19:26.522Z,43.20
2023-04-21T10:21:58.287Z,43.06
2023-04-21T10:24:29.631Z,42.74
2023-04-21T10:26:59.385Z,42.41
2023-04-21T10:29:40.277Z,43.00
2023-04-21T10:32:11.676Z,43.19
2023-04-21T10:34:39.975Z,41.94
2023-04-21T10:37:19.754Z,42.26
2023-04-21T10:39:54.591Z,42.37
2023-04-21T10:42:27.354Z,42.76
2023-04-21T10:45:03.882Z,42.43
2023-04-21T10:47:37.858Z,42.63
2023-04-21T10:50:13.915Z,41.42
2023-04-21T10:52:45.168Z,43.39
2023-04-21T10:55:15.730Z,43.35
2023-04-21T10:57:46.117Z,43.31
2023-04-21T11:00:17.708Z,41.59
2023-04-21T11:02:45.449Z,43.17
2023-04-21T11:05:13.302Z,41.82
2023-04-21T11:07:40.832Z,41.44
2023-04-21T11:10:11.373Z,40.98
2023-04-21T11:12:41.294Z,41.74
2023-04-21T11:15:10.913Z,42.77
2023-04-21T11:17:39.761Z,43.09
2023-04-21T11:20:09.289Z,40.40
2023-04-21T11:22:38.705Z,39.71
2023-04-21T11:25:07.384Z,39.72
2023-04-21T11:27:36.571Z,39.23
2023-04-21T11:30:05.781Z,36.54
2023-04-21T11:32:33.314Z,37.32
2023-04-21T11:35:01.095Z,36.12
2023-04-21T11:37:28.620Z,37.20
2023-04-21T11:39:59.789Z,36.25
2023-04-21T11:42:27.464Z,37.35
2023-04-21T11:44:57.389Z,35.98
2023-04-21T11:47:27.137Z,34.72
2023-04-21T11:49:56.010Z,35.64
2023-04-21T11:52:25.101Z,34.80
2023-04-21T11:54:56.824Z,35.06
2023-04-21T11:57:25.391Z,34.47
2023-04-21T11:59:53.909Z,33.86
2023-04-21T12:02:27.910Z,33.36
2023-04-21T12:05:00.185Z,32.75
2023-04-21T12:07:28.107Z,33.62
2023-04-21T12:09:55.923Z,32.72
2023-04-21T12:12:24.761Z,32.75
2023-04-21T12:14:53.209Z,33.74
2023-04-21T12:17:21.358Z,33.57
2023-04-21T12:19:50.548Z,33.53
2023-04-21T12:22:19.262Z,35.03
2023-04-21T12:24:47.121Z,33.39
2023-04-21T12:27:14.827Z,35.39
2023-04-21T12:29:42.696Z,34.61
2023-04-21T12:32:10.880Z,35.22
2023-04-21T12:34:38.406Z,35.32
2023-04-21T12:37:07.522Z,35.20
2023-04-21T12:39:35.504Z,35.73
2023-04-21T12:42:03.031Z,35.26
2023-04-21T12:44:30.657Z,36.60
2023-04-21T12:46:58.976Z,34.83
2023-04-21T12:49:26.478Z,33.97
2023-04-21T12:51:53.931Z,35.22
2023-04-21T12:54:22.845Z,34.35
2023-04-21T12:56:50.348Z,36.64
2023-04-21T12:59:17.849Z,37.53
2023-04-21T13:01:45.352Z,35.52
2023-04-21T13:04:13.214Z,35.29
2023-04-21T13:06:41.066Z,36.89
2023-04-21T13:09:08.592Z,36.72
2023-04-21T13:11:37.360Z,34.57
2023-04-21T13:14:04.949Z,34.57
2023-04-21T13:16:32.597Z,34.89
2023-04-21T13:19:00.242Z,35.17
2023-04-21T13:21:27.780Z,34.17
2023-04-21T13:23:56.170Z,34.08
2023-04-21T13:26:24.207Z,35.40
2023-04-21T13:28:53.023Z,35.60
2023-04-21T13:31:20.812Z,35.80
2023-04-21T13:33:48.421Z,36.19
2023-04-21T13:36:15.922Z,37.68
2023-04-21T13:38:43.690Z,36.32
2023-04-21T13:41:11.157Z,34.99
2023-04-21T13:43:38.653Z,36.22
2023-04-21T13:46:07.750Z,36.21
2023-04-21T13:48:35.326Z,36.01
2023-04-21T13:51:02.842Z,37.67
2023-04-21T13:53:31.041Z,39.71
2023-04-21T13:55:59.443Z,38.20
2023-04-21T13:58:26.905Z,37.62
2023-04-21T14:00:54.349Z,37.06
2023-04-21T14:03:23.339Z,36.51
2023-04-21T14:05:50.988Z,34.96
2023-04-21T14:08:18.778Z,35.21
2023-04-21T14:10:46.221Z,33.67
2023-04-21T14:13:26.916Z,33.17
2023-04-21T14:16:01.192Z,34.27
2023-04-21T14:18:30.058Z,33.28
2023-04-21T14:20:57.542Z,33.04
2023-04-21T14:23:25.062Z,34.49
2023-04-21T14:25:54.378Z,33.36
2023-04-21T14:28:22.550Z,32.25
2023-04-21T14:30:50.217Z,34.38
2023-04-21T14:33:17.768Z,33.53
2023-04-21T14:35:46.893Z,34.98
2023-04-21T14:38:14.418Z,33.51
2023-04-21T14:40:41.909Z,34.40
2023-04-21T14:43:11.233Z,34.43
2023-04-21T14:45:41.006Z,36.04
2023-04-21T14:48:08.790Z,36.38
2023-04-21T14:50:36.298Z,35.69
2023-04-21T14:53:05.114Z,35.34
2023-04-21T14:55:32.672Z,36.35
2023-04-21T14:58:00.422Z,35.98
2023-04-21T15:00:29.391Z,35.22
2023-04-21T15:02:56.985Z,34.32
2023-04-21T15:05:24.835Z,34.50
2023-04-21T15:07:52.432Z,32.91
2023-04-21T15:10:21.405Z,32.42
2023-04-21T15:12:48.978Z,32.22
2023-04-21T15:15:16.463Z,33.29
2023-04-21T15:17:43.959Z,32.36
2023-04-21T15:20:12.214Z,32.48
2023-04-21T15:22:39.848Z,33.36
2023-04-21T15:25:07.638Z,33.72
2023-04-21T15:27:36.728Z,34.04
2023-04-21T15:30:05.036Z,33.63
2023-04-21T15:32:32.539Z,34.50
2023-04-21T15:35:00.997Z,34.61
2023-04-21T15:37:28.484Z,34.99
2023-04-21T15:39:56.001Z,35.13
2023-04-21T15:42:23.620Z,35.56
2023-04-21T15:44:53.584Z,36.09
2023-04-21T15:47:21.081Z,35.76
2023-04-21T15:49:48.539Z,35.73
2023-04-21T15:52:16.502Z,35.16
2023-04-21T15:54:46.840Z,35.95
2023-04-21T15:57:14.882Z,35.72
2023-04-21T15:59:42.611Z,35.41
2023-04-21T16:02:11.987Z,36.84
2023-04-21T16:04:39.952Z,36.99
2023-04-21T16:07:07.703Z,35.69
2023-04-21T16:09:35.212Z,36.30
2023-04-21T16:12:08.448Z,36.16
2023-04-21T16:14:50.750Z,35.96
2023-04-21T16:17:26.501Z,35.94
2023-04-21T16:19:54.334Z,37.21
2023-04-21T16:22:21.899Z,36.86
2023-04-21T16:24:49.819Z,36.87
2023-04-21T16:27:17.354Z,37.03
2023-04-21T16:29:44.818Z,36.83
2023-04-21T16:32:12.310Z,37.77
2023-04-21T16:34:41.606Z,38.36
2023-04-21T16:37:09.520Z,37.40
2023-04-21T16:39:37.162Z,36.99
2023-04-21T16:42:04.838Z,37.35
2023-04-21T16:44:32.318Z,37.36
2023-04-21T16:46:59.911Z,36.49
2023-04-21T16:49:27.432Z,36.62
2023-04-21T16:51:56.484Z,37.00
2023-04-21T16:54:24.097Z,36.54
2023-04-21T16:56:51.652Z,37.26
2023-04-21T16:59:21.228Z,37.40
2023-04-21T17:01:49.787Z,37.89
2023-04-21T17:04:17.396Z,37.82
2023-04-21T17:06:44.869Z,38.12
2023-04-21T17:09:13.652Z,37.22
2023-04-21T17:11:41.109Z,37.86
2023-04-21T17:14:08.566Z,37.87
2023-04-21T17:16:36.252Z,37.74
2023-04-21T17:19:04.541Z,38.05
2023-04-21T17:21:32.043Z,37.96
2023-04-21T17:23:59.509Z,38.46
2023-04-21T17:26:28.367Z,38.81
2023-04-21T17:28:57.392Z,39.02
2023-04-21T17:31:24.905Z,39.11
2023-04-21T17:33:52.509Z,38.72
2023-04-21T17:36:20.388Z,38.05
2023-04-21T17:38:48.165Z,37.81
2023-04-21T17:41:15.624Z,37.91
2023-04-21T17:43:44.418Z,37.63
2023-04-21T17:46:12.352Z,38.77
2023-04-21T17:48:39.890Z,39.54
2023-04-21T17:51:07.552Z,40.12
2023-04-21T17:53:35.006Z,40.46
2023-04-21T17:56:02.709Z,40.57
2023-04-21T17:58:30.390Z,41.00
2023-04-21T18:00:59.276Z,40.77
2023-04-21T18:03:27.376Z,40.82
2023-04-21T18:05:55.092Z,41.34
2023-04-21T18:08:22.900Z,41.62
2023-04-21T18:10:50.357Z,42.07
2023-04-21T18:13:17.990Z,42.01
2023-04-21T18:15:45.720Z,42.86
2023-04-21T18:18:15.011Z,43.05
2023-04-21T18:20:42.915Z,43.37
2023-04-21T18:23:10.394Z,44.24
2023-04-21T18:25:42.578Z,45.43
2023-04-21T18:28:12.375Z,47.22
2023-04-21T18:30:40.430Z,48.08
2023-04-21T18:33:08.045Z,48.80
2023-04-21T18:35:36.942Z,49.11
2023-04-21T18:38:05.793Z,50.58
2023-04-21T18:40:33.498Z,51.58
2023-04-21T18:43:01.369Z,52.52
2023-04-21T18:45:28.831Z,52.94
2023-04-21T18:47:56.308Z,54.95
2023-04-21T18:50:23.860Z,56.61
2023-04-21T18:52:52.694Z,56.01
2023-04-21T18:55:20.272Z,56.31
2023-04-21T18:57:47.753Z,55.79
2023-04-21T19:00:15.812Z,55.49
2023-04-21T19:02:48.463Z,57.81
2023-04-21T19:05:16.353Z,57.45
2023-04-21T19:07:43.788Z,58.91
2023-04-21T19:10:12.864Z,59.56
2023-04-21T19:12:41.536Z,60.53
2023-04-21T19:15:09.893Z,61.12
2023-04-21T19:17:37.389Z,62.92
2023-04-21T19:20:06.689Z,63.47
2023-04-21T19:22:36.088Z,63.97
2023-04-21T19:25:03.930Z,65.53
2023-04-21T19:27:32.975Z,65.61
2023-04-21T19:30:00.590Z,66.97
2023-04-21T19:32:28.274Z,67.84
2023-04-21T19:34:55.957Z,68.21
2023-04-21T19:37:23.452Z,73.14
2023-04-21T19:39:50.920Z,72.66
2023-04-21T19:42:18.404Z,79.56
2023-04-21T19:44:47.319Z,76.49
2023-04-21T19:47:14.880Z,76.06
2023-04-21T19:49:42.393Z,77.35
2023-04-21T19:52:09.884Z,76.41
2023-04-21T19:54:37.530Z,76.63
2023-04-21T19:57:05.238Z,79.03
2023-04-21T19:59:34.473Z,79.73
2023-04-21T20:02:04.484Z,79.84
2023-04-21T20:04:32.465Z,80.50
2023-04-21T20:07:00.075Z,81.01
2023-04-21T20:09:27.678Z,82.30
2023-04-21T20:11:55.287Z,82.73
2023-04-21T20:14:22.744Z,84.79
2023-04-21T20:16:50.282Z,87.51
2023-04-21T20:19:22.767Z,90.11
2023-04-21T20:21:50.748Z,95.00
2023-04-21T20:24:18.186Z,95.83
2023-04-21T20:26:46.360Z,94.85
2023-04-21T20:29:14.001Z,97.83
2023-04-21T20:31:41.763Z,94.98
2023-04-21T20:34:09.303Z,90.68
2023-04-21T20:36:38.193Z,91.09
2023-04-21T20:39:06.386Z,88.38
2023-04-21T20:41:33.954Z,97.27
2023-04-21T20:44:01.516Z,97.37
2023-04-21T20:46:30.123Z,92.93
2023-04-21T20:48:57.662Z,97.53
2023-04-21T20:51:26.648Z,91.68
2023-04-21T20:53:55.508Z,86.34
2023-04-21T20:56:23.059Z,84.82
2023-04-21T20:58:50.618Z,83.94
2023-04-21T21:01:18.816Z,84.11
2023-04-21T21:03:46.966Z,85.15
2023-04-21T21:06:14.600Z,84.64
2023-04-21T21:08:42.829Z,85.73
2023-04-21T21:11:11.701Z,85.53
2023-04-21T21:13:39.194Z,86.48
2023-04-21T21:16:07.524Z,87.63
2023-04-21T21:18:35.966Z,88.24
2023-04-21T21:21:06.521Z,89.36
2023-04-21T21:23:34.039Z,90.48
2023-04-21T21:26:01.698Z,91.81
2023-04-21T21:28:31.002Z,92.61
2023-04-21T21:30:58.470Z,92.75
2023-04-21T21:33:26.095Z,94.92
2023-04-21T21:35:53.636Z,94.89
2023-04-21T21:38:21.171Z,96.17
2023-04-21T21:40:48.657Z,96.89
2023-04-21T21:43:16.759Z,99.05
2023-04-21T21:45:45.620Z,100.00
2023-04-21T21:48:13.662Z,100.00
2023-04-21T21:50:41.176Z,100.00
2023-04-21T21:53:08.640Z,100.00
2023-04-21T21:55:36.216Z,100.00
2023-04-21T21:58:04.370Z,100.00
2023-04-21T22:00:31.847Z,100.00
2023-04-21T22:03:00.783Z,100.00
2023-04-21T22:05:28.463Z,100.00
2023-04-21T22:07:56.928Z,100.00
2023-04-21T22:10:24.909Z,100.00
2023-04-21T22:12:54.268Z,100.00
2023-04-21T22:15:21.803Z,100.00
2023-04-21T22:17:49.351Z,100.00
2023-04-21T22:20:19.184Z,100.00
2023-04-21T22:22:46.656Z,100.00
2023-04-21T22:25:14.312Z,100.00
2023-04-21T22:27:41.833Z,100.00
2023-04-21T22:30:10.127Z,100.00
2023-04-21T22:32:37.715Z,100.00
2023-04-21T22:35:05.962Z,100.00
2023-04-21T22:37:34.764Z,100.00
2023-04-21T22:40:02.229Z,100.00
2023-04-21T22:42:29.722Z,98.88
2023-04-21T22:44:57.315Z,100.00
2023-04-21T22:47:24.790Z,100.00
2023-04-21T22:49:53.317Z,100.00
2023-04-21T22:52:20.798Z,100.00
2023-04-21T22:54:49.604Z,100.00
2023-04-21T22:57:17.150Z,100.00
2023-04-21T22:59:44.622Z,100.00
2023-04-21T23:02:12.159Z,100.00
2023-04-21T23:04:39.675Z,100.00
2023-04-21T23:07:07.147Z,100.00
2023-04-21T23:09:34.611Z,100.00
2023-04-21T23:12:04.255Z,100.00
2023-04-21T23:14:31.710Z,100.00
2023-04-21T23:16:59.241Z,100.00
2023-04-21T23:19:26.861Z,100.00
2023-04-21T23:21:54.416Z,100.00
2023-04-21T23:24:21.961Z,100.00
2023-04-21T23:26:49.439Z,100.00
2023-04-21T23:29:18.430Z,100.00
2023-04-21T23:31:46.113Z,100.00
2023-04-21T23:34:14.865Z,100.00
2023-04-21T23:36:42.347Z,100.00
2023-04-21T23:39:10.979Z,100.00
2023-04-21T23:41:38.715Z,100.00
2023-04-21T23:44:06.304Z,100.00
2023-04-21T23:46:36.903Z,100.00
2023-04-21T23:49:04.566Z,100.00
2023-04-21T23:51:33.367Z,100.00
2023-04-21T23:54:01.579Z,100.00
2023-04-21T23:56:29.139Z,100.00
2023-04-21T23:58:56.618Z,100.00
